Time;durP1;ratioP1;P1;durP2;ratioP2;P2;SDS_P1;SDS_P2;PMS_P1;PMS_P2;Temp;Humidity;BMP_temperature;BMP_pressure;BME280_temperature;BME280_humidity;BME280_pressure;Samples;Min_cycle;Max_cycle;Signal;HPM_P1;HPM_P2
2023/12/31 00:00:13;;;;;;;9.23;3.03;;;;;;;;;;5012024;28;20041;-63
2023/12/31 00:02:39;;;;;;;6.03;2.38;;;;;;;;;;5011497;28;20123;-63
2023/12/31 00:05:05;;;;;;;8.70;2.90;;;;;;;;;;5011686;28;20025;-63
2023/12/31 00:07:32;;;;;;;4.80;2.47;;;;;;;;;;5011131;28;20033;-63
2023/12/31 00:09:58;;;;;;;11.00;2.78;;;;;;;;;;5011638;28;20084;-63
2023/12/31 00:12:24;;;;;;;5.95;2.78;;;;;;;;;;5011931;28;20052;-63
2023/12/31 00:14:50;;;;;;;7.82;2.88;;;;;;;;;;5010785;28;20040;-63
2023/12/31 00:17:16;;;;;;;5.95;2.92;;;;;;;;;;5011832;28;20088;-63
2023/12/31 00:19:42;;;;;;;5.88;2.40;;;;;;;;;;5011890;28;20080;-63
2023/12/31 00:22:08;;;;;;;7.10;2.60;;;;;;;;;;5011843;28;20397;-64
2023/12/31 00:24:34;;;;;;;5.10;2.22;;;;;;;;;;5011497;28;20558;-64
2023/12/31 00:27:00;;;;;;;9.38;2.95;;;;;;;;;;5011060;28;20562;-64
2023/12/31 00:29:29;;;;;;;6.18;2.50;;;;;;;;;;5011373;28;20041;-64
2023/12/31 00:31:55;;;;;;;6.93;2.53;;;;;;;;;;5010431;28;20084;-64
2023/12/31 00:34:21;;;;;;;5.53;2.25;;;;;;;;;;5011525;28;20116;-64
2023/12/31 00:36:47;;;;;;;4.75;2.15;;;;;;;;;;5011630;28;20053;-64
2023/12/31 00:39:13;;;;;;;4.68;1.80;;;;;;;;;;5009520;28;20041;-64
2023/12/31 00:41:39;;;;;;;4.80;1.98;;;;;;;;;;5011838;28;20037;-64
2023/12/31 00:44:05;;;;;;;5.03;2.20;;;;;;;;;;5010657;28;20096;-63
2023/12/31 00:46:31;;;;;;;4.78;1.90;;;;;;;;;;5009731;28;20520;-63
2023/12/31 00:48:57;;;;;;;5.88;2.20;;;;;;;;;;5010679;28;20041;-63
2023/12/31 00:51:23;;;;;;;3.88;1.70;;;;;;;;;;5010782;28;20412;-63
2023/12/31 00:53:49;;;;;;;4.05;2.10;;;;;;;;;;5010003;28;20394;-64
2023/12/31 00:56:15;;;;;;;4.15;1.80;;;;;;;;;;5011852;28;20106;-64
2023/12/31 00:58:42;;;;;;;6.35;1.95;;;;;;;;;;5011026;28;20029;-64
2023/12/31 01:01:08;;;;;;;5.43;1.77;;;;;;;;;;5011347;28;20029;-64
2023/12/31 01:03:34;;;;;;;5.20;1.83;;;;;;;;;;5010819;28;20036;-64
2023/12/31 01:06:07;;;;;;;5.97;2.05;;;;;;;;;;5012021;28;20056;-64
2023/12/31 01:08:33;;;;;;;5.85;1.77;;;;;;;;;;5011846;28;20057;-64
2023/12/31 01:10:59;;;;;;;5.18;1.70;;;;;;;;;;5010726;28;20053;-64
2023/12/31 01:13:25;;;;;;;4.57;2.13;;;;;;;;;;5011613;28;20033;-64
2023/12/31 01:15:51;;;;;;;6.47;2.60;;;;;;;;;;5011146;28;20136;-64
2023/12/31 01:18:17;;;;;;;5.05;1.95;;;;;;;;;;5011935;28;20029;-64
2023/12/31 01:20:43;;;;;;;4.18;1.67;;;;;;;;;;5010484;28;20029;-64
2023/12/31 01:23:09;;;;;;;8.98;1.70;;;;;;;;;;5012114;28;20033;-64
2023/12/31 01:25:36;;;;;;;6.43;1.70;;;;;;;;;;5011209;28;20072;-64
2023/12/31 01:28:02;;;;;;;4.28;2.05;;;;;;;;;;5010925;28;20126;-64
2023/12/31 01:30:29;;;;;;;4.85;1.85;;;;;;;;;;5011661;28;20025;-64
2023/12/31 01:32:56;;;;;;;4.63;1.80;;;;;;;;;;5013216;28;20029;-64
2023/12/31 01:35:22;;;;;;;5.10;1.60;;;;;;;;;;5014687;28;20056;-64
2023/12/31 01:37:48;;;;;;;3.28;1.20;;;;;;;;;;5014794;28;20034;-64
2023/12/31 01:40:14;;;;;;;3.97;1.60;;;;;;;;;;5021487;28;20033;-64
2023/12/31 01:42:40;;;;;;;4.78;1.77;;;;;;;;;;5015532;28;20148;-64
2023/12/31 01:45:06;;;;;;;4.72;1.60;;;;;;;;;;5013197;28;20029;-64
2023/12/31 01:47:35;;;;;;;4.47;1.80;;;;;;;;;;5015417;28;20140;-64
2023/12/31 01:50:03;;;;;;;4.50;1.70;;;;;;;;;;5014872;28;20682;-64
2023/12/31 01:52:29;;;;;;;5.50;1.70;;;;;;;;;;5014296;28;20048;-64
2023/12/31 01:54:56;;;;;;;5.07;1.50;;;;;;;;;;5014244;28;20037;-64
2023/12/31 01:57:24;;;;;;;8.57;1.70;;;;;;;;;;5014240;28;20033;-64
2023/12/31 01:59:51;;;;;;;4.05;1.60;;;;;;;;;;5015123;28;20726;-64
2023/12/31 02:02:17;;;;;;;4.32;1.60;;;;;;;;;;5011955;28;20140;-64
2023/12/31 02:04:43;;;;;;;3.85;1.40;;;;;;;;;;5008113;28;20517;-64
2023/12/31 02:07:09;;;;;;;3.28;1.63;;;;;;;;;;5007716;28;20578;-64
2023/12/31 02:09:35;;;;;;;3.67;1.38;;;;;;;;;;5008803;28;20115;-64
2023/12/31 02:12:01;;;;;;;3.60;1.90;;;;;;;;;;5008172;28;20758;-64
2023/12/31 02:14:27;;;;;;;4.35;1.50;;;;;;;;;;5009554;28;21692;-64
2023/12/31 02:16:53;;;;;;;4.72;1.52;;;;;;;;;;5009201;28;20033;-64
2023/12/31 02:19:19;;;;;;;3.83;1.45;;;;;;;;;;5009406;28;20064;-63
2023/12/31 02:21:45;;;;;;;3.65;1.45;;;;;;;;;;5008604;28;20028;-63
2023/12/31 02:24:14;;;;;;;3.15;1.50;;;;;;;;;;5009996;28;20033;-63
2023/12/31 02:26:41;;;;;;;3.25;1.30;;;;;;;;;;5008877;28;20152;-63
2023/12/31 02:29:07;;;;;;;4.63;1.75;;;;;;;;;;5009771;28;20063;-63
2023/12/31 02:31:34;;;;;;;5.13;1.65;;;;;;;;;;5009776;28;20072;-64
2023/12/31 02:34:01;;;;;;;5.38;1.40;;;;;;;;;;5010244;28;20029;-64
2023/12/31 02:36:27;;;;;;;4.32;1.40;;;;;;;;;;5010586;28;20538;-64
2023/12/31 02:38:53;;;;;;;2.65;1.30;;;;;;;;;;5010258;28;20037;-64
2023/12/31 02:41:19;;;;;;;3.60;1.30;;;;;;;;;;5009067;28;20603;-64
2023/12/31 02:43:45;;;;;;;3.05;1.30;;;;;;;;;;5009878;28;20087;-64
2023/12/31 02:46:11;;;;;;;2.05;1.00;;;;;;;;;;5011115;28;20056;-64
2023/12/31 02:48:37;;;;;;;3.58;1.33;;;;;;;;;;5011462;28;20064;-64
2023/12/31 02:51:03;;;;;;;4.05;1.45;;;;;;;;;;5010204;28;20037;-64
2023/12/31 02:53:29;;;;;;;4.07;1.20;;;;;;;;;;5011891;28;22011;-64
2023/12/31 02:55:55;;;;;;;4.75;1.50;;;;;;;;;;5013045;28;20103;-64
2023/12/31 02:58:22;;;;;;;3.70;1.10;;;;;;;;;;5013680;28;20022;-64
2023/12/31 03:00:48;;;;;;;3.38;1.30;;;;;;;;;;5013969;28;20452;-64
2023/12/31 03:03:14;;;;;;;3.42;1.38;;;;;;;;;;5013355;28;20086;-64
2023/12/31 03:05:40;;;;;;;4.40;1.30;;;;;;;;;;5014004;28;20575;-63
2023/12/31 03:08:06;;;;;;;2.78;1.30;;;;;;;;;;5013249;28;20040;-63
2023/12/31 03:10:32;;;;;;;4.43;1.13;;;;;;;;;;5012317;28;20394;-63
2023/12/31 03:12:58;;;;;;;4.85;1.25;;;;;;;;;;5012119;28;20064;-63
2023/12/31 03:15:24;;;;;;;3.30;1.30;;;;;;;;;;5012835;28;20041;-63
2023/12/31 03:17:51;;;;;;;3.72;1.45;;;;;;;;;;5013192;28;20036;-63
2023/12/31 03:20:17;;;;;;;2.67;1.10;;;;;;;;;;5013491;28;20029;-63
2023/12/31 03:22:45;;;;;;;2.67;1.10;;;;;;;;;;5013745;28;20121;-64
2023/12/31 03:25:11;;;;;;;3.05;1.45;;;;;;;;;;5012517;28;20105;-64
2023/12/31 03:27:37;;;;;;;4.80;1.55;;;;;;;;;;5012302;28;20060;-64
2023/12/31 03:30:03;;;;;;;2.65;1.20;;;;;;;;;;5012903;28;20026;-64
2023/12/31 03:32:29;;;;;;;4.40;1.40;;;;;;;;;;5013434;28;20100;-64
2023/12/31 03:34:55;;;;;;;2.65;1.08;;;;;;;;;;5012491;28;20103;-64
2023/12/31 03:37:21;;;;;;;4.20;1.67;;;;;;;;;;5012924;28;20025;-64
2023/12/31 03:39:50;;;;;;;3.13;1.35;;;;;;;;;;5013079;28;20033;-63
2023/12/31 03:42:16;;;;;;;5.93;1.30;;;;;;;;;;5012215;28;20037;-63
2023/12/31 03:44:42;;;;;;;3.10;1.30;;;;;;;;;;5012846;28;20072;-63
2023/12/31 03:47:08;;;;;;;3.63;1.63;;;;;;;;;;5012658;28;20072;-63
2023/12/31 03:49:34;;;;;;;4.18;1.38;;;;;;;;;;5011603;28;20037;-63
2023/12/31 03:52:00;;;;;;;3.58;1.60;;;;;;;;;;5012927;28;20037;-63
2023/12/31 03:54:26;;;;;;;4.00;1.38;;;;;;;;;;5010680;28;20029;-63
2023/12/31 03:56:52;;;;;;;4.32;1.42;;;;;;;;;;5011455;28;20036;-63
2023/12/31 03:59:18;;;;;;;3.70;1.60;;;;;;;;;;5012160;28;20029;-63
2023/12/31 04:01:45;;;;;;;4.68;1.30;;;;;;;;;;5012231;28;20785;-63
2023/12/31 04:04:14;;;;;;;3.20;1.50;;;;;;;;;;5012172;28;20400;-63
2023/12/31 04:06:41;;;;;;;2.53;1.30;;;;;;;;;;5012504;28;20028;-63
2023/12/31 04:09:09;;;;;;;3.53;1.45;;;;;;;;;;5012340;28;20497;-63
2023/12/31 04:11:35;;;;;;;5.30;1.30;;;;;;;;;;5011375;28;20091;-63
2023/12/31 04:14:01;;;;;;;3.75;1.40;;;;;;;;;;5001289;28;20071;-63
2023/12/31 04:16:27;;;;;;;3.17;1.10;;;;;;;;;;5011754;28;20033;-63
2023/12/31 04:18:53;;;;;;;4.15;1.95;;;;;;;;;;5012087;28;20436;-63
2023/12/31 04:21:19;;;;;;;3.53;1.45;;;;;;;;;;5012368;28;20021;-63
2023/12/31 04:23:45;;;;;;;3.42;1.38;;;;;;;;;;5012176;28;20092;-63
2023/12/31 04:26:11;;;;;;;3.22;1.08;;;;;;;;;;5011068;28;20099;-63
2023/12/31 04:28:37;;;;;;;4.10;1.27;;;;;;;;;;5011673;28;20120;-63
2023/12/31 04:31:03;;;;;;;2.53;1.38;;;;;;;;;;5011910;28;20064;-63
2023/12/31 04:33:29;;;;;;;3.63;1.35;;;;;;;;;;5010385;28;20038;-63
2023/12/31 04:35:55;;;;;;;3.78;1.40;;;;;;;;;;5011819;28;20126;-63
2023/12/31 04:38:22;;;;;;;4.80;1.30;;;;;;;;;;5011477;28;20057;-63
2023/12/31 04:40:48;;;;;;;3.95;1.42;;;;;;;;;;5011706;28;20029;-63
2023/12/31 04:43:14;;;;;;;3.75;1.40;;;;;;;;;;5011638;28;20034;-63
2023/12/31 04:45:40;;;;;;;5.35;1.45;;;;;;;;;;5011982;28;20033;-63
2023/12/31 04:48:06;;;;;;;4.13;1.50;;;;;;;;;;5011492;28;20029;-63
2023/12/31 04:50:32;;;;;;;5.50;1.80;;;;;;;;;;5011408;28;20048;-63
2023/12/31 04:52:58;;;;;;;4.03;1.45;;;;;;;;;;5012460;28;20030;-63
2023/12/31 04:55:24;;;;;;;5.32;1.75;;;;;;;;;;5010121;28;20037;-64
2023/12/31 04:57:50;;;;;;;3.03;1.40;;;;;;;;;;5012155;28;20033;-64
2023/12/31 05:00:18;;;;;;;3.75;1.50;;;;;;;;;;5011426;28;20029;-64
2023/12/31 05:02:44;;;;;;;5.97;1.63;;;;;;;;;;5011919;28;20532;-64
2023/12/31 05:05:10;;;;;;;3.47;1.35;;;;;;;;;;5010630;28;21096;-64
2023/12/31 05:07:36;;;;;;;4.13;1.27;;;;;;;;;;5013264;28;20504;-64
2023/12/31 05:10:02;;;;;;;3.53;1.58;;;;;;;;;;5014765;28;20139;-64
2023/12/31 05:12:28;;;;;;;3.80;1.50;;;;;;;;;;5015358;28;20029;-63
2023/12/31 05:14:54;;;;;;;3.33;1.42;;;;;;;;;;5015899;28;20087;-63
2023/12/31 05:17:20;;;;;;;5.22;1.50;;;;;;;;;;5014803;28;20033;-63
2023/12/31 05:19:47;;;;;;;4.72;1.42;;;;;;;;;;5015590;28;20029;-63
2023/12/31 05:22:13;;;;;;;3.95;1.50;;;;;;;;;;5014878;28;20523;-63
2023/12/31 05:24:39;;;;;;;5.40;1.60;;;;;;;;;;5014141;28;20728;-63
2023/12/31 05:27:05;;;;;;;4.00;1.27;;;;;;;;;;5014754;28;20472;-63
2023/12/31 05:29:31;;;;;;;2.33;1.08;;;;;;;;;;5015197;28;20025;-63
2023/12/31 05:31:57;;;;;;;4.63;1.30;;;;;;;;;;5015257;28;20041;-63
2023/12/31 05:34:23;;;;;;;3.90;1.60;;;;;;;;;;5014857;28;20033;-63
2023/12/31 05:36:49;;;;;;;4.70;1.58;;;;;;;;;;5014028;28;20032;-63
2023/12/31 05:39:16;;;;;;;4.00;1.50;;;;;;;;;;5014426;28;20131;-63
2023/12/31 05:41:42;;;;;;;3.35;1.30;;;;;;;;;;5015213;28;20075;-63
2023/12/31 05:44:08;;;;;;;5.22;1.35;;;;;;;;;;5014665;28;20033;-63
2023/12/31 05:46:34;;;;;;;3.28;1.45;;;;;;;;;;5015352;28;20614;-63
2023/12/31 05:49:00;;;;;;;3.35;1.48;;;;;;;;;;5014676;28;20091;-63
2023/12/31 05:51:26;;;;;;;3.92;1.30;;;;;;;;;;5014943;28;20044;-63
2023/12/31 05:53:52;;;;;;;2.92;1.33;;;;;;;;;;5012831;28;20029;-63
2023/12/31 05:56:18;;;;;;;4.38;1.40;;;;;;;;;;5013258;28;20064;-63
2023/12/31 05:58:46;;;;;;;4.22;1.50;;;;;;;;;;5014907;28;20040;-63
2023/12/31 06:01:12;;;;;;;4.68;1.75;;;;;;;;;;5014407;28;20029;-63
2023/12/31 06:03:38;;;;;;;3.40;1.73;;;;;;;;;;5014572;28;20034;-63
2023/12/31 06:06:04;;;;;;;3.85;1.77;;;;;;;;;;5015437;28;20037;-63
2023/12/31 06:08:30;;;;;;;3.30;1.48;;;;;;;;;;5014218;28;20171;-63
2023/12/31 06:10:56;;;;;;;3.42;1.50;;;;;;;;;;5012924;28;20056;-63
2023/12/31 06:13:22;;;;;;;6.35;1.95;;;;;;;;;;5014590;28;21066;-63
2023/12/31 06:15:48;;;;;;;3.15;1.50;;;;;;;;;;5014385;28;20190;-63
2023/12/31 06:18:15;;;;;;;5.38;1.83;;;;;;;;;;5013940;28;20029;-63
2023/12/31 06:20:41;;;;;;;4.45;1.60;;;;;;;;;;5014284;28;20045;-63
2023/12/31 06:23:07;;;;;;;4.68;1.40;;;;;;;;;;5014167;28;20033;-63
2023/12/31 06:25:34;;;;;;;4.82;1.58;;;;;;;;;;5012827;28;20099;-64
2023/12/31 06:28:00;;;;;;;4.15;1.77;;;;;;;;;;5014198;28;20485;-63
2023/12/31 06:30:26;;;;;;;3.97;1.58;;;;;;;;;;5013676;28;20103;-63
2023/12/31 06:32:52;;;;;;;5.07;1.98;;;;;;;;;;5014312;28;20109;-63
2023/12/31 06:35:18;;;;;;;4.65;2.00;;;;;;;;;;5013782;28;20140;-63
2023/12/31 06:37:44;;;;;;;4.57;1.90;;;;;;;;;;5013837;28;20087;-63
2023/12/31 06:40:11;;;;;;;5.97;1.95;;;;;;;;;;5012173;28;20044;-63
2023/12/31 06:42:37;;;;;;;3.47;1.67;;;;;;;;;;5012139;28;20026;-63
2023/12/31 06:45:04;;;;;;;3.88;1.95;;;;;;;;;;5013351;28;20034;-63
2023/12/31 06:47:31;;;;;;;5.97;1.92;;;;;;;;;;5012920;28;20029;-63
2023/12/31 06:49:57;;;;;;;5.25;2.20;;;;;;;;;;5014431;28;20161;-63
2023/12/31 06:52:23;;;;;;;3.65;1.63;;;;;;;;;;5013071;28;20048;-63
2023/12/31 06:54:49;;;;;;;4.72;1.73;;;;;;;;;;5014019;28;20037;-63
2023/12/31 06:57:15;;;;;;;6.03;1.80;;;;;;;;;;5011125;28;20143;-63
2023/12/31 06:59:41;;;;;;;4.75;1.90;;;;;;;;;;5013508;28;20112;-63
2023/12/31 07:02:07;;;;;;;6.10;2.20;;;;;;;;;;5013335;28;20115;-63
2023/12/31 07:04:34;;;;;;;4.47;1.88;;;;;;;;;;5013445;28;20904;-63
2023/12/31 07:07:00;;;;;;;6.97;2.47;;;;;;;;;;5012793;28;20060;-63
2023/12/31 07:09:28;;;;;;;5.85;1.70;;;;;;;;;;5013051;28;20040;-63
2023/12/31 07:11:54;;;;;;;3.70;1.70;;;;;;;;;;5013256;28;20037;-63
2023/12/31 07:14:21;;;;;;;3.75;1.77;;;;;;;;;;5010758;28;20044;-63
2023/12/31 07:16:47;;;;;;;7.50;1.70;;;;;;;;;;5013478;28;20052;-63
2023/12/31 07:19:14;;;;;;;4.30;2.15;;;;;;;;;;5012973;28;20033;-63
2023/12/31 07:21:40;;;;;;;5.35;1.88;;;;;;;;;;5012807;28;20037;-63
2023/12/31 07:24:06;;;;;;;6.82;2.03;;;;;;;;;;5013347;28;21034;-63
2023/12/31 07:26:32;;;;;;;5.07;1.85;;;;;;;;;;5012987;28;20025;-63
2023/12/31 07:28:58;;;;;;;3.85;1.70;;;;;;;;;;5013455;28;20025;-63
2023/12/31 07:31:24;;;;;;;3.85;1.70;;;;;;;;;;5011540;28;20062;-63
2023/12/31 07:33:50;;;;;;;4.03;1.75;;;;;;;;;;5012367;28;20168;-63
2023/12/31 07:36:16;;;;;;;4.00;1.90;;;;;;;;;;5012212;28;20223;-63
2023/12/31 07:38:43;;;;;;;4.00;2.03;;;;;;;;;;5011723;28;20025;-63
2023/12/31 07:41:11;;;;;;;4.28;1.90;;;;;;;;;;5012361;28;20056;-63
2023/12/31 07:43:37;;;;;;;3.80;1.85;;;;;;;;;;5011840;28;20025;-63
2023/12/31 07:46:05;;;;;;;4.72;2.00;;;;;;;;;;5009920;28;21809;-63
2023/12/31 07:48:31;;;;;;;2.63;1.30;;;;;;;;;;5012382;28;20025;-63
2023/12/31 07:50:59;;;;;;;4.82;1.90;;;;;;;;;;5010782;28;20041;-63
2023/12/31 07:53:25;;;;;;;5.57;1.85;;;;;;;;;;5011688;28;20060;-63
2023/12/31 07:55:51;;;;;;;5.22;1.90;;;;;;;;;;5011285;28;20057;-63
2023/12/31 07:58:17;;;;;;;4.70;2.17;;;;;;;;;;5012240;28;20038;-63
2023/12/31 08:00:43;;;;;;;4.13;2.20;;;;;;;;;;5012122;28;20034;-63
2023/12/31 08:03:09;;;;;;;5.20;1.85;;;;;;;;;;5011681;28;20038;-63
2023/12/31 08:05:35;;;;;;;3.33;1.60;;;;;;;;;;5009995;28;20044;-62
2023/12/31 08:08:01;;;;;;;3.83;1.63;;;;;;;;;;5010877;28;20041;-63
2023/12/31 08:10:27;;;;;;;4.47;1.52;;;;;;;;;;5009813;28;20049;-63
2023/12/31 08:12:53;;;;;;;6.47;1.67;;;;;;;;;;5011589;28;20041;-63
2023/12/31 08:15:19;;;;;;;3.75;2.05;;;;;;;;;;5011280;28;20034;-63
2023/12/31 08:17:45;;;;;;;4.85;1.92;;;;;;;;;;5010432;28;20084;-63
2023/12/31 08:20:11;;;;;;;3.42;1.63;;;;;;;;;;5010002;28;20116;-63
2023/12/31 08:22:37;;;;;;;3.95;1.90;;;;;;;;;;5010501;28;20029;-63
2023/12/31 08:25:04;;;;;;;3.67;1.73;;;;;;;;;;5012498;28;20071;-63
2023/12/31 08:27:30;;;;;;;5.25;1.73;;;;;;;;;;5010864;28;20038;-63
2023/12/31 08:29:56;;;;;;;4.53;2.30;;;;;;;;;;5011896;28;20521;-63
2023/12/31 08:32:27;;;;;;;4.45;1.73;;;;;;;;;;5010117;28;20689;-63
2023/12/31 08:34:53;;;;;;;4.22;1.90;;;;;;;;;;5009924;28;20021;-63
2023/12/31 08:37:19;;;;;;;6.82;2.00;;;;;;;;;;5011615;28;21790;-63
2023/12/31 08:39:45;;;;;;;5.65;1.88;;;;;;;;;;5012233;28;20725;-63
2023/12/31 08:42:11;;;;;;;4.07;2.08;;;;;;;;;;5011572;28;20485;-63
2023/12/31 08:44:37;;;;;;;4.13;1.70;;;;;;;;;;5015455;28;20037;-63
2023/12/31 08:47:04;;;;;;;5.13;1.95;;;;;;;;;;5015265;28;20026;-63
2023/12/31 08:49:30;;;;;;;5.32;1.83;;;;;;;;;;5015340;28;20067;-63
2023/12/31 08:51:56;;;;;;;3.28;1.65;;;;;;;;;;5014795;28;20065;-63
2023/12/31 08:54:22;;;;;;;4.15;2.00;;;;;;;;;;5015382;28;20984;-63
2023/12/31 08:56:48;;;;;;;4.32;1.92;;;;;;;;;;5013776;28;20048;-63
2023/12/31 08:59:14;;;;;;;4.80;1.88;;;;;;;;;;5014554;28;20033;-63
2023/12/31 09:01:40;;;;;;;4.38;1.88;;;;;;;;;;5010905;28;21024;-63
2023/12/31 09:04:07;;;;;;;4.28;2.10;;;;;;;;;;5013799;28;20029;-63
2023/12/31 09:06:33;;;;;;;5.88;2.15;;;;;;;;;;5013985;28;20032;-63
2023/12/31 09:08:59;;;;;;;6.43;1.90;;;;;;;;;;5015006;28;20116;-63
2023/12/31 09:11:25;;;;;;;4.38;1.90;;;;;;;;;;5015431;28;20091;-63
2023/12/31 09:13:51;;;;;;;4.78;1.90;;;;;;;;;;5014799;28;20817;-63
2023/12/31 09:16:18;;;;;;;3.88;1.65;;;;;;;;;;5013864;28;20594;-63
2023/12/31 09:18:44;;;;;;;5.18;2.00;;;;;;;;;;5013541;28;21898;-63
2023/12/31 09:21:10;;;;;;;3.90;1.80;;;;;;;;;;5014826;28;20707;-63
2023/12/31 09:23:36;;;;;;;5.70;2.33;;;;;;;;;;5013622;28;20397;-63
2023/12/31 09:26:02;;;;;;;4.28;2.17;;;;;;;;;;5013027;28;20806;-63
2023/12/31 09:28:28;;;;;;;4.93;2.10;;;;;;;;;;5014875;28;20029;-63
2023/12/31 09:30:54;;;;;;;3.35;1.90;;;;;;;;;;5013147;28;20131;-63
2023/12/31 09:33:20;;;;;;;5.15;1.70;;;;;;;;;;5012596;28;20060;-63
2023/12/31 09:35:46;;;;;;;4.25;1.98;;;;;;;;;;5014784;28;20064;-64
2023/12/31 09:38:12;;;;;;;5.25;2.20;;;;;;;;;;5014423;28;20032;-64
2023/12/31 09:40:38;;;;;;;4.03;1.95;;;;;;;;;;5014095;28;20029;-63
2023/12/31 09:43:07;;;;;;;4.28;1.70;;;;;;;;;;5014440;28;20045;-63
2023/12/31 09:45:34;;;;;;;4.95;2.22;;;;;;;;;;5013252;28;20026;-63
2023/12/31 09:48:01;;;;;;;4.60;1.90;;;;;;;;;;5014097;28;20025;-63
2023/12/31 09:50:30;;;;;;;3.88;1.85;;;;;;;;;;5013829;28;20033;-63
2023/12/31 09:53:01;;;;;;;4.53;2.08;;;;;;;;;;5013822;28;20089;-63
2023/12/31 09:55:28;;;;;;;3.53;1.80;;;;;;;;;;5012767;28;20123;-64
2023/12/31 09:57:54;;;;;;;4.10;2.00;;;;;;;;;;5003345;28;20732;-64
2023/12/31 10:00:21;;;;;;;4.80;2.05;;;;;;;;;;5013882;28;20021;-63
2023/12/31 10:02:48;;;;;;;5.13;2.17;;;;;;;;;;5013648;28;20127;-63
2023/12/31 10:05:15;;;;;;;4.13;1.92;;;;;;;;;;5014135;28;20040;-63
2023/12/31 10:07:43;;;;;;;5.80;2.00;;;;;;;;;;5014421;28;20120;-63
2023/12/31 10:10:10;;;;;;;4.80;1.80;;;;;;;;;;5014067;28;20527;-63
2023/12/31 10:12:36;;;;;;;5.35;2.33;;;;;;;;;;5012179;28;20045;-63
2023/12/31 10:15:02;;;;;;;5.90;2.30;;;;;;;;;;5012887;28;20125;-63
2023/12/31 10:17:29;;;;;;;4.28;2.15;;;;;;;;;;5012263;28;21777;-63
2023/12/31 10:19:57;;;;;;;4.03;1.95;;;;;;;;;;5012229;28;20034;-63
2023/12/31 10:22:24;;;;;;;4.72;2.25;;;;;;;;;;5013118;28;20025;-63
2023/12/31 10:24:51;;;;;;;6.18;2.10;;;;;;;;;;5012989;28;20044;-63
2023/12/31 10:27:17;;;;;;;4.28;2.10;;;;;;;;;;5013247;28;20065;-63
2023/12/31 10:29:43;;;;;;;4.65;2.20;;;;;;;;;;5012499;28;20045;-63
2023/12/31 10:32:09;;;;;;;4.70;2.00;;;;;;;;;;5011469;28;20034;-63
2023/12/31 10:34:35;;;;;;;4.28;1.92;;;;;;;;;;5010902;28;20056;-63
2023/12/31 10:37:05;;;;;;;4.97;2.30;;;;;;;;;;5011913;28;20037;-63
2023/12/31 10:39:32;;;;;;;4.60;2.13;;;;;;;;;;5010808;28;20594;-63
2023/12/31 10:42:00;;;;;;;7.70;2.42;;;;;;;;;;5014075;28;20639;-63
2023/12/31 10:44:26;;;;;;;6.30;2.30;;;;;;;;;;5011922;28;20037;-63
2023/12/31 10:47:00;;;;;;;5.70;2.42;;;;;;;;;;5012400;28;20056;-63
2023/12/31 10:49:30;;;;;;;5.45;2.42;;;;;;;;;;5012501;28;20155;-63
2023/12/31 10:51:56;;;;;;;3.95;2.08;;;;;;;;;;5012926;28;20030;-63
2023/12/31 10:54:36;;;;;;;4.65;2.65;;;;;;;;;;5010846;28;20120;-63
2023/12/31 10:57:04;;;;;;;4.63;2.03;;;;;;;;;;5011984;28;20037;-63
2023/12/31 10:59:31;;;;;;;5.32;2.22;;;;;;;;;;5013940;28;20025;-63
2023/12/31 11:01:57;;;;;;;6.53;2.97;;;;;;;;;;5012193;28;20052;-63
2023/12/31 11:04:25;;;;;;;5.43;2.88;;;;;;;;;;5010171;28;20049;-63
2023/12/31 11:06:52;;;;;;;6.45;2.50;;;;;;;;;;5012021;28;20029;-63
2023/12/31 11:09:19;;;;;;;6.65;3.05;;;;;;;;;;5012739;28;20025;-63
2023/12/31 11:11:45;;;;;;;5.03;2.60;;;;;;;;;;5010439;28;20745;-63
2023/12/31 11:14:13;;;;;;;5.47;2.65;;;;;;;;;;5011068;28;20048;-63
2023/12/31 11:16:47;;;;;;;6.07;2.40;;;;;;;;;;5011704;28;20713;-63
2023/12/31 11:19:16;;;;;;;5.75;3.03;;;;;;;;;;5011476;28;20032;-63
2023/12/31 11:21:53;;;;;;;6.43;2.70;;;;;;;;;;5012188;28;20021;-62
2023/12/31 11:24:23;;;;;;;5.85;2.40;;;;;;;;;;5010983;28;20079;-62
2023/12/31 11:27:08;;;;;;;5.70;2.80;;;;;;;;;;5011528;28;20084;-62
2023/12/31 11:29:34;;;;;;;6.13;3.00;;;;;;;;;;5012241;28;20029;-62
2023/12/31 11:32:00;;;;;;;5.75;3.03;;;;;;;;;;5001739;28;20038;-62
2023/12/31 11:34:26;;;;;;;6.32;3.67;;;;;;;;;;5011250;28;20148;-62
2023/12/31 11:37:00;;;;;;;8.15;3.95;;;;;;;;;;5010759;28;20045;-62
2023/12/31 11:39:26;;;;;;;5.80;2.55;;;;;;;;;;5008730;28;20037;-62
2023/12/31 11:41:52;;;;;;;6.07;2.72;;;;;;;;;;5011713;28;20037;-62
2023/12/31 11:44:34;;;;;;;4.15;1.70;;;;;;;;;;5010548;28;20032;-62
2023/12/31 11:47:00;;;;;;;4.95;1.58;;;;;;;;;;5011198;28;20092;-62
2023/12/31 11:49:26;;;;;;;3.75;1.40;;;;;;;;;;5011333;28;20025;-62
2023/12/31 11:51:56;;;;;;;3.22;1.25;;;;;;;;;;5010965;28;20121;-62
2023/12/31 11:54:22;;;;;;;4.13;1.30;;;;;;;;;;5010137;28;20029;-62
2023/12/31 11:56:49;;;;;;;1.63;0.80;;;;;;;;;;5010312;28;20079;-62
2023/12/31 11:59:16;;;;;;;2.65;0.80;;;;;;;;;;5011945;28;20564;-62
2023/12/31 12:01:45;;;;;;;1.52;0.60;;;;;;;;;;5011770;28;20112;-62
2023/12/31 12:04:12;;;;;;;1.65;0.50;;;;;;;;;;5010736;28;20563;-62
2023/12/31 12:06:39;;;;;;;2.50;0.55;;;;;;;;;;5010171;28;20040;-62
2023/12/31 12:09:05;;;;;;;3.20;0.50;;;;;;;;;;5010658;28;20053;-62
2023/12/31 12:11:32;;;;;;;4.43;0.80;;;;;;;;;;5011472;28;20055;-62
2023/12/31 12:13:58;;;;;;;2.38;0.73;;;;;;;;;;5011494;28;20041;-62
2023/12/31 12:16:28;;;;;;;2.08;0.70;;;;;;;;;;5010906;28;20074;-62
2023/12/31 12:18:58;;;;;;;2.92;1.02;;;;;;;;;;5010072;28;20716;-62
2023/12/31 12:21:24;;;;;;;3.88;1.15;;;;;;;;;;5011032;28;20029;-62
2023/12/31 12:23:50;;;;;;;3.85;0.88;;;;;;;;;;5010256;28;20033;-62
2023/12/31 12:26:16;;;;;;;4.38;1.40;;;;;;;;;;5010885;28;20041;-62
2023/12/31 12:28:44;;;;;;;3.42;1.20;;;;;;;;;;5010354;28;20037;-62
2023/12/31 12:31:10;;;;;;;3.22;1.33;;;;;;;;;;5010011;28;20030;-62
2023/12/31 12:33:37;;;;;;;5.38;1.10;;;;;;;;;;5009217;28;21070;-62
2023/12/31 12:36:03;;;;;;;3.38;1.10;;;;;;;;;;5011117;28;20504;-62
2023/12/31 12:38:30;;;;;;;3.55;1.13;;;;;;;;;;5011399;28;20029;-62
2023/12/31 12:41:00;;;;;;;3.63;0.80;;;;;;;;;;5010689;28;20030;-62
2023/12/31 12:43:33;;;;;;;3.45;0.88;;;;;;;;;;5010604;28;20033;-62
2023/12/31 12:46:05;;;;;;;4.43;0.98;;;;;;;;;;5011244;28;20091;-62
2023/12/31 12:48:31;;;;;;;4.50;1.60;;;;;;;;;;5010274;28;20103;-62
2023/12/31 12:50:58;;;;;;;2.33;1.10;;;;;;;;;;5010979;28;20044;-62
2023/12/31 12:53:25;;;;;;;5.10;1.60;;;;;;;;;;5011574;28;20030;-62
2023/12/31 12:55:51;;;;;;;3.00;0.88;;;;;;;;;;5010008;28;20139;-62
2023/12/31 12:58:17;;;;;;;3.92;0.95;;;;;;;;;;5010662;28;20034;-62
2023/12/31 13:00:43;;;;;;;3.03;1.05;;;;;;;;;;5008988;28;20040;-62
2023/12/31 13:03:09;;;;;;;2.47;1.15;;;;;;;;;;5008010;28;20029;-62
2023/12/31 13:05:35;;;;;;;4.53;1.00;;;;;;;;;;5009925;28;20037;-62
2023/12/31 13:08:03;;;;;;;3.60;1.15;;;;;;;;;;5009816;28;20056;-62
2023/12/31 13:10:29;;;;;;;3.22;1.30;;;;;;;;;;5008553;28;20397;-62
2023/12/31 13:12:56;;;;;;;2.60;1.02;;;;;;;;;;5009169;28;20033;-62
2023/12/31 13:15:22;;;;;;;3.88;1.30;;;;;;;;;;5009364;28;20042;-62
2023/12/31 13:17:48;;;;;;;1.83;0.82;;;;;;;;;;5009748;28;20060;-62
2023/12/31 13:20:14;;;;;;;3.28;0.80;;;;;;;;;;5009736;28;20033;-63
2023/12/31 13:22:42;;;;;;;3.80;1.02;;;;;;;;;;5007900;28;20052;-63
2023/12/31 13:25:09;;;;;;;3.92;1.05;;;;;;;;;;5009681;28;20084;-63
2023/12/31 13:27:35;;;;;;;2.42;0.85;;;;;;;;;;5009504;28;20052;-63
2023/12/31 13:30:01;;;;;;;2.25;0.80;;;;;;;;;;5012889;28;20452;-63
2023/12/31 13:32:27;;;;;;;2.72;1.05;;;;;;;;;;5011482;28;20026;-63
2023/12/31 13:34:53;;;;;;;2.05;1.00;;;;;;;;;;5012242;28;20075;-63
2023/12/31 13:37:19;;;;;;;2.25;0.98;;;;;;;;;;5012511;28;20029;-62
2023/12/31 13:39:45;;;;;;;6.03;1.45;;;;;;;;;;5011771;28;20035;-63
2023/12/31 13:42:12;;;;;;;6.75;1.63;;;;;;;;;;5010682;28;20040;-62
2023/12/31 13:44:38;;;;;;;6.32;1.20;;;;;;;;;;5010940;28;20036;-62
2023/12/31 13:47:05;;;;;;;5.28;1.10;;;;;;;;;;5010322;28;20026;-62
2023/12/31 13:49:31;;;;;;;7.60;1.52;;;;;;;;;;5013004;28;20029;-62
2023/12/31 13:51:57;;;;;;;7.53;0.98;;;;;;;;;;5010541;28;20021;-62
2023/12/31 13:54:24;;;;;;;6.03;0.93;;;;;;;;;;5011924;28;20099;-62
2023/12/31 13:56:50;;;;;;;5.30;1.33;;;;;;;;;;5008808;28;20034;-62
2023/12/31 13:59:16;;;;;;;5.45;1.17;;;;;;;;;;5006375;28;20647;-62
2023/12/31 14:01:42;;;;;;;5.68;1.27;;;;;;;;;;5011440;28;20038;-62
2023/12/31 14:04:08;;;;;;;6.05;1.00;;;;;;;;;;5012367;28;20907;-62
2023/12/31 14:06:36;;;;;;;8.60;1.10;;;;;;;;;;5013546;28;20038;-63
2023/12/31 14:09:03;;;;;;;9.05;2.22;;;;;;;;;;5013153;28;20568;-62
2023/12/31 14:11:29;;;;;;;6.35;1.23;;;;;;;;;;5012495;28;20083;-62
2023/12/31 14:13:55;;;;;;;4.05;1.00;;;;;;;;;;5013614;28;20029;-63
2023/12/31 14:16:22;;;;;;;7.93;0.95;;;;;;;;;;5014442;28;20040;-62
2023/12/31 14:18:48;;;;;;;7.95;1.23;;;;;;;;;;5011803;28;20034;-63
2023/12/31 14:21:14;;;;;;;8.55;1.60;;;;;;;;;;5013327;28;20033;-63
2023/12/31 14:23:40;;;;;;;7.07;1.40;;;;;;;;;;5002495;28;20041;-63
2023/12/31 14:26:06;;;;;;;8.63;1.20;;;;;;;;;;5013189;28;20124;-63
2023/12/31 14:28:32;;;;;;;4.55;1.08;;;;;;;;;;5012616;28;20033;-63
2023/12/31 14:30:58;;;;;;;5.10;1.20;;;;;;;;;;5013137;28;20037;-62
2023/12/31 14:33:24;;;;;;;6.50;1.67;;;;;;;;;;5012404;28;20144;-62
2023/12/31 14:35:50;;;;;;;6.35;1.30;;;;;;;;;;5012007;28;20029;-63
2023/12/31 14:38:16;;;;;;;3.80;1.30;;;;;;;;;;5013590;28;20038;-63